createdAt,value
2019-04-03T00:00:38.645Z,6.90
2019-04-03T00:03:09.169Z,6.97
2019-04-03T00:05:39.513Z,6.57
2019-04-03T00:08:09.946Z,6.33
2019-04-03T00:10:40.352Z,6.20
2019-04-03T00:13:11.382Z,6.57
2019-04-03T00:15:44.220Z,6.37
2019-04-03T00:18:16.037Z,6.50
2019-04-03T00:20:46.888Z,6.73
2019-04-03T00:23:18.296Z,7.63
2019-04-03T00:25:48.732Z,7.30
2019-04-03T00:28:19.175Z,7.17
2019-04-03T00:30:49.560Z,6.53
2019-04-03T00:33:19.999Z,7.43
2019-04-03T00:35:53.031Z,6.77
2019-04-03T00:38:23.888Z,7.47
2019-04-03T00:40:54.997Z,8.30
2019-04-03T00:43:25.804Z,7.60
2019-04-03T00:45:56.146Z,7.13
2019-04-03T00:48:26.562Z,7.20
2019-04-03T00:50:57.574Z,8.10
2019-04-03T00:53:28.400Z,8.10
2019-04-03T00:55:58.782Z,7.83
2019-04-03T00:58:37.821Z,8.23
2019-04-03T01:01:10.261Z,9.57
2019-04-03T01:03:41.010Z,8.97
2019-04-03T01:06:11.555Z,8.53
2019-04-03T01:08:44.626Z,8.40
2019-04-03T01:11:15.034Z,8.30
2019-04-03T01:13:45.386Z,9.37
2019-04-03T01:16:15.714Z,8.23
2019-04-03T01:18:46.077Z,8.50
2019-04-03T01:21:16.485Z,8.07
2019-04-03T01:23:46.844Z,8.70
2019-04-03T01:26:17.219Z,8.63
2019-04-03T01:28:47.774Z,8.63
2019-04-03T01:31:18.279Z,8.90
2019-04-03T01:33:51.064Z,8.40
2019-04-03T01:36:22.076Z,8.43
2019-04-03T01:38:52.586Z,8.60
2019-04-03T01:41:23.311Z,8.80
2019-04-03T01:43:54.358Z,8.17
2019-04-03T01:46:27.204Z,7.67
2019-04-03T01:48:58.443Z,8.67
2019-04-03T01:51:30.009Z,7.77
2019-04-03T01:54:02.594Z,7.80
2019-04-03T01:56:35.180Z,8.83
2019-04-03T01:59:06.899Z,8.30
2019-04-03T02:01:38.720Z,9.17
2019-04-03T02:04:12.105Z,9.53
2019-04-03T02:06:44.386Z,9.13
2019-04-03T02:09:16.312Z,8.77
2019-04-03T02:11:47.645Z,9.30
2019-04-03T02:14:21.172Z,9.87
2019-04-03T02:16:53.215Z,9.20
2019-04-03T02:19:25.647Z,9.53
2019-04-03T02:21:58.144Z,9.97
2019-04-03T02:24:27.494Z,9.17
2019-04-03T02:26:58.171Z,9.07
2019-04-03T02:29:28.583Z,9.40
2019-04-03T02:31:58.989Z,8.63
2019-04-03T02:34:33.250Z,8.83
2019-04-03T02:37:01.330Z,9.13
2019-04-03T02:39:33.614Z,9.63
2019-04-03T02:42:07.808Z,9.43
2019-04-03T02:44:36.423Z,9.27
2019-04-03T02:47:07.365Z,8.97
2019-04-03T02:49:41.479Z,9.27
2019-04-03T02:52:10.318Z,9.20
2019-04-03T02:54:42.808Z,9.30
2019-04-03T02:57:16.693Z,8.87
2019-04-03T02:59:45.557Z,8.77
2019-04-03T03:02:16.177Z,9.10
2019-04-03T03:04:47.055Z,8.70
2019-04-03T03:07:17.772Z,8.17
2019-04-03T03:09:49.847Z,8.17
2019-04-03T03:12:20.603Z,8.13
2019-04-03T03:14:51.792Z,10.00
2019-04-03T03:17:23.574Z,8.63
2019-04-03T03:19:55.047Z,9.13
2019-04-03T03:22:26.597Z,8.60
2019-04-03T03:24:59.840Z,9.47
2019-04-03T03:27:30.597Z,8.60
2019-04-03T03:30:01.475Z,8.57
2019-04-03T03:32:35.414Z,8.50
2019-04-03T03:35:11.831Z,9.37
2019-04-03T03:37:37.895Z,8.67
2019-04-03T03:40:08.707Z,8.83
2019-04-03T03:42:39.233Z,9.33
2019-04-03T03:45:12.164Z,9.00
2019-04-03T03:47:43.324Z,8.93
2019-04-03T03:50:14.008Z,8.77
2019-04-03T03:52:46.393Z,9.13
2019-04-03T03:55:23.154Z,10.03
2019-04-03T03:57:52.317Z,8.83
2019-04-03T04:00:24.636Z,10.27
2019-04-03T04:02:56.286Z,9.47
2019-04-03T04:05:27.168Z,10.33
2019-04-03T04:07:59.522Z,10.87
2019-04-03T04:10:33.326Z,10.90
2019-04-03T04:13:02.813Z,10.03
2019-04-03T04:15:33.419Z,9.40
2019-04-03T04:18:04.156Z,8.60
2019-04-03T04:20:37.787Z,8.87
2019-04-03T04:23:07.354Z,9.20
2019-04-03T04:25:38.604Z,9.73
2019-04-03T04:28:09.675Z,9.73
2019-04-03T04:30:42.352Z,9.73
2019-04-03T04:33:17.235Z,9.57
2019-04-03T04:35:47.545Z,9.73
2019-04-03T04:38:17.815Z,8.90
2019-04-03T04:40:48.062Z,9.37
2019-04-03T04:43:18.322Z,9.90
2019-04-03T04:45:48.915Z,10.00
2019-04-03T04:48:20.824Z,9.30
2019-04-03T04:50:54.322Z,8.87
2019-04-03T04:53:23.851Z,9.23
2019-04-03T04:55:54.442Z,8.77
2019-04-03T04:58:25.409Z,9.87
2019-04-03T05:00:56.101Z,10.20
2019-04-03T05:03:26.727Z,10.67
2019-04-03T05:05:58.261Z,9.40
2019-04-03T05:08:29.288Z,11.10
2019-04-03T05:10:59.893Z,10.37
2019-04-03T05:13:32.771Z,9.70
2019-04-03T05:16:03.884Z,10.30
2019-04-03T05:18:34.400Z,9.20
2019-04-03T05:21:05.448Z,10.47
2019-04-03T05:23:36.044Z,8.73
2019-04-03T05:26:06.910Z,9.07
2019-04-03T05:28:37.401Z,9.40
2019-04-03T05:31:08.762Z,9.13
2019-04-03T05:33:41.231Z,9.00
2019-04-03T05:36:11.928Z,8.83
2019-04-03T05:38:42.938Z,9.50
2019-04-03T05:41:13.887Z,8.97
2019-04-03T05:43:44.574Z,8.67
2019-04-03T05:46:15.206Z,8.90
2019-04-03T05:48:47.889Z,9.10
2019-04-03T05:51:18.176Z,9.67
2019-04-03T05:53:50.231Z,9.03
2019-04-03T05:56:21.589Z,9.03
2019-04-03T05:58:55.958Z,8.70
2019-04-03T06:01:25.567Z,9.10
2019-04-03T06:03:58.881Z,8.07
2019-04-03T06:06:29.639Z,9.63
2019-04-03T06:09:00.751Z,8.80
2019-04-03T06:11:31.461Z,9.57
2019-04-03T06:14:02.121Z,10.67
2019-04-03T06:16:33.512Z,10.50
2019-04-03T06:19:06.878Z,9.40
2019-04-03T06:21:39.701Z,9.77
2019-04-03T06:24:10.653Z,9.80
2019-04-03T06:26:44.133Z,10.50
2019-04-03T06:29:14.257Z,10.80
2019-04-03T06:31:45.411Z,11.87
2019-04-03T06:34:16.679Z,10.27
2019-04-03T06:36:52.476Z,11.13
2019-04-03T06:39:30.123Z,12.47
2019-04-03T06:41:58.178Z,10.53
2019-04-03T06:44:29.398Z,10.20
2019-04-03T06:47:01.144Z,10.87
2019-04-03T06:49:32.399Z,9.80
2019-04-03T06:52:03.888Z,9.37
2019-04-03T06:54:34.664Z,10.73
2019-04-03T06:57:05.762Z,11.40
2019-04-03T06:59:36.705Z,10.20
2019-04-03T07:02:07.532Z,10.20
2019-04-03T07:04:38.910Z,10.30
2019-04-03T07:07:09.680Z,10.00
2019-04-03T07:09:40.674Z,9.63
2019-04-03T07:12:11.343Z,10.23
2019-04-03T07:14:42.242Z,10.67
2019-04-03T07:17:13.025Z,10.63
2019-04-03T07:19:43.646Z,11.60
2019-04-03T07:22:14.542Z,11.27
2019-04-03T07:24:45.249Z,9.43
2019-04-03T07:27:15.820Z,9.13
2019-04-03T07:29:49.062Z,9.27
2019-04-03T07:32:19.408Z,8.77
2019-04-03T07:34:50.179Z,8.97
2019-04-03T07:37:20.830Z,9.60
2019-04-03T07:39:51.683Z,8.93
2019-04-03T07:42:24.332Z,9.17
2019-04-03T07:44:55.092Z,9.30
2019-04-03T07:47:26.015Z,9.47
2019-04-03T07:49:59.709Z,9.23
2019-04-03T07:52:30.841Z,10.30
2019-04-03T07:55:01.653Z,9.30
2019-04-03T07:57:32.516Z,10.33
2019-04-03T08:00:06.288Z,9.53
2019-04-03T08:02:36.972Z,9.53
2019-04-03T08:05:08.786Z,10.43
2019-04-03T08:07:39.510Z,10.00
2019-04-03T08:10:10.404Z,10.23
2019-04-03T08:12:41.200Z,9.57
2019-04-03T08:15:13.247Z,10.07
2019-04-03T08:17:44.746Z,10.20
2019-04-03T08:20:19.881Z,9.40
2019-04-03T08:22:50.710Z,8.47
2019-04-03T08:25:21.790Z,9.00
2019-04-03T08:27:54.495Z,9.77
2019-04-03T08:30:24.926Z,10.00
2019-04-03T08:32:55.645Z,9.37
2019-04-03T08:35:27.392Z,8.47
2019-04-03T08:37:58.550Z,9.30
2019-04-03T08:40:29.557Z,8.97
2019-04-03T08:43:01.399Z,8.63
2019-04-03T08:45:32.225Z,8.93
2019-04-03T08:48:06.384Z,9.63
2019-04-03T08:50:37.063Z,9.57
2019-04-03T08:53:09.794Z,9.07
2019-04-03T08:55:40.936Z,9.47
2019-04-03T08:58:11.655Z,10.07
2019-04-03T09:00:43.104Z,10.87
2019-04-03T09:03:14.590Z,9.13
2019-04-03T09:05:45.779Z,9.80
2019-04-03T09:08:16.517Z,9.20
2019-04-03T09:10:47.133Z,9.77
2019-04-03T09:13:22.423Z,6.97
2019-04-03T09:15:50.212Z,12.00
2019-04-03T09:18:20.800Z,10.50
2019-04-03T09:20:53.563Z,10.30
2019-04-03T09:23:27.181Z,10.47
2019-04-03T09:25:57.984Z,9.07
2019-04-03T09:28:28.628Z,9.17
2019-04-03T09:30:59.760Z,9.80
2019-04-03T09:33:30.460Z,9.43
2019-04-03T09:36:04.312Z,11.10
2019-04-03T09:38:36.416Z,9.00
2019-04-03T09:41:07.580Z,9.53
2019-04-03T09:43:39.690Z,10.17
2019-04-03T09:46:10.723Z,9.63
2019-04-03T09:48:41.460Z,9.87
2019-04-03T09:51:12.276Z,9.27
2019-04-03T09:53:43.741Z,8.47
2019-04-03T09:56:14.435Z,9.97
2019-04-03T09:58:45.349Z,8.37
2019-04-03T10:01:18.457Z,9.40
2019-04-03T10:03:49.249Z,9.03
2019-04-03T10:06:20.148Z,8.00
2019-04-03T10:08:53.771Z,8.27
2019-04-03T10:11:24.877Z,9.33
2019-04-03T10:13:57.754Z,7.53
2019-04-03T10:16:28.595Z,6.07
2019-04-03T10:18:59.783Z,8.70
2019-04-03T10:21:33.114Z,6.87
2019-04-03T10:24:03.151Z,7.73
2019-04-03T10:26:39.417Z,7.13
2019-04-03T10:29:12.252Z,8.83
2019-04-03T10:31:43.351Z,7.20
2019-04-03T10:34:14.780Z,6.30
2019-04-03T10:36:45.912Z,6.70
2019-04-03T10:39:19.482Z,7.70
2019-04-03T10:41:49.444Z,5.70
2019-04-03T10:44:20.036Z,6.60
2019-04-03T10:46:50.821Z,7.20
2019-04-03T10:49:21.631Z,8.03
2019-04-03T10:51:52.270Z,6.10
2019-04-03T10:54:24.831Z,6.83
2019-04-03T10:56:56.028Z,6.37
2019-04-03T10:59:27.005Z,7.70
2019-04-03T11:01:57.744Z,5.63
2019-04-03T11:04:28.530Z,6.70
2019-04-03T11:06:59.627Z,6.63
2019-04-03T11:09:33.391Z,7.83
2019-04-03T11:12:04.304Z,7.53
2019-04-03T11:14:35.026Z,7.60
2019-04-03T11:17:05.964Z,7.47
2019-04-03T11:19:37.405Z,5.30
2019-04-03T11:22:08.873Z,7.73
2019-04-03T11:24:42.675Z,6.40
2019-04-03T11:27:13.371Z,7.40
2019-04-03T11:29:43.961Z,7.57
2019-04-03T11:32:17.772Z,6.53
2019-04-03T11:34:49.327Z,6.83
2019-04-03T11:37:20.789Z,9.60
2019-04-03T11:40:01.344Z,6.87
2019-04-03T11:42:27.422Z,6.60
2019-04-03T11:44:55.584Z,6.00
2019-04-03T11:47:26.192Z,7.93
2019-04-03T11:49:56.907Z,7.00
2019-04-03T11:52:27.669Z,6.50
2019-04-03T11:54:58.331Z,7.03
2019-04-03T11:57:29.759Z,7.13
2019-04-03T12:00:02.234Z,5.63
2019-04-03T12:02:32.999Z,5.70
2019-04-03T12:05:04.698Z,6.43
2019-04-03T12:07:35.684Z,6.87
2019-04-03T12:10:07.064Z,6.13
2019-04-03T12:12:38.465Z,6.93
2019-04-03T12:15:09.713Z,6.07
2019-04-03T12:17:43.347Z,6.30
2019-04-03T12:20:16.470Z,7.03
2019-04-03T12:22:47.588Z,6.97
2019-04-03T12:25:21.056Z,6.90
2019-04-03T12:27:52.395Z,7.00
2019-04-03T12:30:28.236Z,5.13
2019-04-03T12:33:02.380Z,7.27
2019-04-03T12:35:33.135Z,5.43
2019-04-03T12:38:03.957Z,6.97
2019-04-03T12:40:34.720Z,6.10
2019-04-03T12:43:05.378Z,5.83
2019-04-03T12:45:38.507Z,7.00
2019-04-03T12:48:09.132Z,6.73
2019-04-03T12:50:40.128Z,6.50
2019-04-03T12:53:11.393Z,6.40
2019-04-03T12:55:43.007Z,6.97
2019-04-03T12:58:13.871Z,6.50
2019-04-03T13:00:46.125Z,6.23
2019-04-03T13:03:17.369Z,7.27
2019-04-03T13:05:49.120Z,6.23
2019-04-03T13:08:21.342Z,6.00
2019-04-03T13:10:52.790Z,7.77
2019-04-03T13:13:26.818Z,7.00
2019-04-03T13:15:57.330Z,6.73
2019-04-03T13:18:28.294Z,6.93
2019-04-03T13:20:59.412Z,5.70
2019-04-03T13:23:30.357Z,7.27
2019-04-03T13:26:02.410Z,6.90
2019-04-03T13:28:35.290Z,6.90
2019-04-03T13:31:07.540Z,6.17
2019-04-03T13:33:39.306Z,7.57
2019-04-03T13:36:10.597Z,6.03
2019-04-03T13:38:41.477Z,7.23
2019-04-03T13:41:12.577Z,7.60
2019-04-03T13:43:43.751Z,8.07
2019-04-03T13:46:14.494Z,8.10
2019-04-03T13:48:45.918Z,7.77
2019-04-03T13:51:17.129Z,7.53
2019-04-03T13:53:47.917Z,7.67
2019-04-03T13:56:18.897Z,6.60
2019-04-03T13:58:52.991Z,5.83
2019-04-03T14:01:22.789Z,6.17
2019-04-03T14:03:54.381Z,5.97
2019-04-03T14:06:25.497Z,5.83
2019-04-03T14:08:58.504Z,5.80
2019-04-03T14:11:32.293Z,5.33
2019-04-03T14:14:03.342Z,5.57
2019-04-03T14:16:35.430Z,6.03
2019-04-03T14:19:06.059Z,5.67
2019-04-03T14:21:36.751Z,5.77
2019-04-03T14:24:08.873Z,5.57
2019-04-03T14:26:40.365Z,6.40
2019-04-03T14:29:11.331Z,3.97
2019-04-03T14:31:42.244Z,5.43
2019-04-03T14:34:13.444Z,4.70
2019-04-03T14:36:44.688Z,5.63
2019-04-03T14:39:15.938Z,4.80
2019-04-03T14:41:47.452Z,4.63
2019-04-03T14:44:18.742Z,5.30
2019-04-03T14:46:50.741Z,4.60
2019-04-03T14:49:22.325Z,4.70
2019-04-03T14:51:56.280Z,4.30
2019-04-03T14:54:27.194Z,5.10
2019-04-03T14:56:57.955Z,4.77
2019-04-03T14:59:34.603Z,4.50
2019-04-03T15:02:04.728Z,4.27
2019-04-03T15:04:37.038Z,4.53
2019-04-03T15:07:09.881Z,4.43
2019-04-03T15:09:40.907Z,5.13
2019-04-03T15:12:12.888Z,4.73
2019-04-03T15:14:43.453Z,4.40
2019-04-03T15:17:14.112Z,3.97
2019-04-03T15:19:46.300Z,4.03
2019-04-03T15:22:17.383Z,4.27
2019-04-03T15:24:48.063Z,4.63
2019-04-03T15:27:18.486Z,3.83
2019-04-03T15:29:50.070Z,3.67
2019-04-03T15:32:21.595Z,3.63
2019-04-03T15:34:53.390Z,6.57
2019-04-03T15:37:24.218Z,8.60
2019-04-03T15:39:58.244Z,9.63
2019-04-03T15:42:27.213Z,9.07
2019-04-03T15:44:58.741Z,8.50
2019-04-03T15:47:38.246Z,8.77
2019-04-03T15:50:03.193Z,8.70
2019-04-03T15:52:34.054Z,9.20
2019-04-03T15:55:06.432Z,9.03
2019-04-03T15:57:39.769Z,8.77
2019-04-03T16:00:11.328Z,9.30
2019-04-03T16:02:45.130Z,9.63
2019-04-03T16:05:16.096Z,9.30
2019-04-03T16:07:47.349Z,9.17
2019-04-03T16:10:18.520Z,9.33
2019-04-03T16:12:49.311Z,9.50
2019-04-03T16:15:22.462Z,9.80
2019-04-03T16:17:52.859Z,9.30
2019-04-03T16:20:24.037Z,9.17
2019-04-03T16:22:54.857Z,8.33
2019-04-03T16:25:25.529Z,8.17
2019-04-03T16:27:56.686Z,7.80
2019-04-03T16:30:27.553Z,8.63
2019-04-03T16:33:02.382Z,8.10
2019-04-03T16:35:31.187Z,8.07
2019-04-03T16:38:02.089Z,8.87
2019-04-03T16:40:33.623Z,8.37
2019-04-03T16:43:05.664Z,8.17
2019-04-03T16:45:38.951Z,8.47
2019-04-03T16:48:09.724Z,9.03
2019-04-03T16:50:40.644Z,9.70
2019-04-03T16:53:11.520Z,9.07
2019-04-03T16:55:42.810Z,8.97
2019-04-03T16:58:13.827Z,9.47
2019-04-03T17:00:44.583Z,8.83
2019-04-03T17:03:15.870Z,8.10
2019-04-03T17:05:47.334Z,9.07
2019-04-03T17:08:18.163Z,8.00
2019-04-03T17:10:49.070Z,9.10
2019-04-03T17:13:21.392Z,8.27
2019-04-03T17:15:52.648Z,7.93
2019-04-03T17:18:23.608Z,7.93
2019-04-03T17:20:56.149Z,7.63
2019-04-03T17:23:26.679Z,7.40
2019-04-03T17:25:57.906Z,8.10
2019-04-03T17:28:28.831Z,7.93
2019-04-03T17:31:00.002Z,7.63
2019-04-03T17:33:32.328Z,7.60
2019-04-03T17:36:03.881Z,8.23
2019-04-03T17:38:34.600Z,7.43
2019-04-03T17:41:07.023Z,7.37
2019-04-03T17:43:37.870Z,7.90
2019-04-03T17:46:08.233Z,7.23
2019-04-03T17:48:38.841Z,6.90
2019-04-03T17:51:09.461Z,7.60
2019-04-03T17:53:39.893Z,7.37
2019-04-03T17:56:12.239Z,7.37
2019-04-03T17:58:42.190Z,7.00
2019-04-03T18:01:12.798Z,7.47
2019-04-03T18:03:43.126Z,7.60
2019-04-03T18:06:13.424Z,7.40
2019-04-03T18:08:43.843Z,8.10
2019-04-03T18:11:14.174Z,7.23
2019-04-03T18:13:44.552Z,8.10
2019-04-03T18:16:14.898Z,7.67
2019-04-03T18:18:45.169Z,7.37
2019-04-03T18:21:17.960Z,7.43
2019-04-03T18:23:48.325Z,8.00
2019-04-03T18:26:19.217Z,7.40
2019-04-03T18:28:51.638Z,7.80
2019-04-03T18:31:22.023Z,7.40
2019-04-03T18:33:52.430Z,7.50
2019-04-03T18:36:22.925Z,7.43
2019-04-03T18:38:53.492Z,8.00
2019-04-03T18:41:23.836Z,7.73
2019-04-03T18:43:57.674Z,6.80
2019-04-03T18:46:32.382Z,7.40
2019-04-03T18:49:01.574Z,7.43
2019-04-03T18:51:32.792Z,7.37
2019-04-03T18:54:03.459Z,7.87
2019-04-03T18:56:34.521Z,8.07
2019-04-03T18:59:05.037Z,7.43
2019-04-03T19:01:37.884Z,7.40
2019-04-03T19:04:08.015Z,6.90
2019-04-03T19:06:38.480Z,6.97
2019-04-03T19:09:10.292Z,7.83
2019-04-03T19:11:42.402Z,7.27
2019-04-03T19:14:26.083Z,7.17
2019-04-03T19:16:49.642Z,7.50
2019-04-03T19:19:17.887Z,6.80
2019-04-03T19:21:48.534Z,6.90
2019-04-03T19:24:18.951Z,7.40
2019-04-03T19:26:49.537Z,7.40
2019-04-03T19:29:20.303Z,7.30
2019-04-03T19:31:50.899Z,8.00
2019-04-03T19:34:21.470Z,7.60
2019-04-03T19:36:52.173Z,6.93
2019-04-03T19:39:23.036Z,7.10
2019-04-03T19:41:53.646Z,7.07
2019-04-03T19:44:24.162Z,8.23
2019-04-03T19:46:54.657Z,8.00
2019-04-03T19:49:27.507Z,6.93
2019-04-03T19:51:57.459Z,6.63
2019-04-03T19:54:27.850Z,7.27
2019-04-03T19:57:01.001Z,7.33
2019-04-03T19:59:34.501Z,7.43
2019-04-03T20:02:03.801Z,7.53
2019-04-03T20:04:43.867Z,7.80
2019-04-03T20:07:15.091Z,8.23
2019-04-03T20:09:45.885Z,7.97
2019-04-03T20:12:16.521Z,7.47
2019-04-03T20:14:57.524Z,8.47
2019-04-03T20:17:19.425Z,8.10
2019-04-03T20:19:50.083Z,8.20
2019-04-03T20:22:20.669Z,8.17
2019-04-03T20:24:59.732Z,7.83
2019-04-03T20:27:23.445Z,9.07
2019-04-03T20:29:58.898Z,8.60
2019-04-03T20:32:31.361Z,8.27
2019-04-03T20:35:02.050Z,8.13
2019-04-03T20:37:32.477Z,8.47
2019-04-03T20:40:03.044Z,8.90
2019-04-03T20:42:33.464Z,8.10
2019-04-03T20:45:04.689Z,8.30
2019-04-03T20:47:35.787Z,9.03
2019-04-03T20:50:07.760Z,8.37
2019-04-03T20:52:38.474Z,8.93
2019-04-03T20:55:09.457Z,8.07
2019-04-03T20:57:54.536Z,7.77
2019-04-03T21:00:18.033Z,8.30
2019-04-03T21:02:47.758Z,9.10
2019-04-03T21:05:18.832Z,9.50
2019-04-03T21:07:49.620Z,9.13
2019-04-03T21:10:20.098Z,8.73
2019-04-03T21:12:51.756Z,9.43
2019-04-03T21:15:22.423Z,10.03
2019-04-03T21:17:53.224Z,10.97
2019-04-03T21:20:24.306Z,10.70
2019-04-03T21:22:57.861Z,11.93
2019-04-03T21:25:36.075Z,12.97
2019-04-03T21:28:07.058Z,14.27
2019-04-03T21:30:37.597Z,16.10
2019-04-03T21:33:08.100Z,15.10
2019-04-03T21:35:38.742Z,15.30
2019-04-03T21:38:10.919Z,14.00
2019-04-03T21:40:41.297Z,8.50
2019-04-03T21:43:11.583Z,8.57
2019-04-03T21:45:42.058Z,6.37
2019-04-03T21:48:13.849Z,6.20
2019-04-03T21:50:44.800Z,4.47
2019-04-03T21:53:17.287Z,5.20
2019-04-03T21:55:47.801Z,5.17
2019-04-03T21:58:18.256Z,5.83
2019-04-03T22:01:19.026Z,5.90
2019-04-03T22:03:51.495Z,5.60
2019-04-03T22:06:22.647Z,5.57
2019-04-03T22:08:54.787Z,6.23
2019-04-03T22:11:25.312Z,5.53
2019-04-03T22:13:55.825Z,5.03
2019-04-03T22:16:26.422Z,5.60
2019-04-03T22:18:57.042Z,5.70
2019-04-03T22:21:27.490Z,4.80
2019-04-03T22:23:58.518Z,4.77
2019-04-03T22:26:32.258Z,4.53
2019-04-03T22:29:03.000Z,4.00
2019-04-03T22:31:33.802Z,4.43
2019-04-03T22:34:04.323Z,4.47
2019-04-03T22:36:35.201Z,4.47
2019-04-03T22:39:08.119Z,4.67
2019-04-03T22:41:38.804Z,4.70
2019-04-03T22:44:09.267Z,5.73
2019-04-03T22:46:39.804Z,5.30
2019-04-03T22:49:10.592Z,5.13
2019-04-03T22:51:42.928Z,5.07
2019-04-03T22:54:13.375Z,6.80
2019-04-03T22:56:43.892Z,6.30
2019-04-03T22:59:14.126Z,5.97
2019-04-03T23:01:44.617Z,4.97
2019-04-03T23:04:15.055Z,3.70
2019-04-03T23:06:45.515Z,4.53
2019-04-03T23:09:16.327Z,4.33
2019-04-03T23:11:46.963Z,4.40
2019-04-03T23:14:17.367Z,4.87
2019-04-03T23:16:47.973Z,6.00
2019-04-03T23:19:19.831Z,7.20
2019-04-03T23:21:50.275Z,6.73
2019-04-03T23:24:20.719Z,5.93
2019-04-03T23:26:53.440Z,6.30
2019-04-03T23:29:24.531Z,6.43
2019-04-03T23:31:55.001Z,6.50
2019-04-03T23:34:25.502Z,6.03
2019-04-03T23:36:55.824Z,5.73
2019-04-03T23:39:28.439Z,6.73
2019-04-03T23:41:59.128Z,6.07
2019-04-03T23:44:29.754Z,7.83
2019-04-03T23:47:00.109Z,6.53
2019-04-03T23:49:31.841Z,7.13
2019-04-03T23:52:02.472Z,6.97
2019-04-03T23:54:34.035Z,6.50
2019-04-03T23:57:04.920Z,6.77
2019-04-03T23:59:35.616Z,7.00
